createdAt,value
2023-03-16T00:01:06.989Z,11.75
2023-03-16T00:06:08.491Z,11.40
2023-03-16T00:11:10.047Z,14.15
2023-03-16T00:16:12.009Z,13.05
2023-03-16T00:21:15.132Z,14.55
2023-03-16T00:26:17.195Z,15.32
2023-03-16T00:31:19.051Z,16.75
2023-03-16T00:36:20.671Z,12.70
2023-03-16T00:41:22.752Z,11.77
2023-03-16T00:46:24.405Z,10.45
2023-03-16T00:51:25.963Z,7.28
2023-03-16T00:56:27.523Z,9.80
2023-03-16T01:01:29.158Z,11.05
2023-03-16T01:06:30.733Z,8.77
2023-03-16T01:11:32.484Z,9.18
2023-03-16T01:16:34.577Z,9.02
2023-03-16T01:21:36.170Z,7.25
2023-03-16T01:26:37.843Z,9.90
2023-03-16T01:31:39.428Z,7.97
2023-03-16T01:36:43.281Z,8.23
2023-03-16T01:41:46.280Z,7.13
2023-03-16T01:46:48.779Z,8.75
2023-03-16T01:52:08.838Z,7.30
2023-03-16T01:57:18.598Z,7.50
2023-03-16T02:02:23.977Z,9.80
2023-03-16T02:07:29.091Z,6.75
2023-03-16T02:12:31.033Z,8.48
2023-03-16T02:17:36.529Z,6.65
2023-03-16T02:22:47.633Z,8.60
2023-03-16T02:28:10.689Z,7.90
2023-03-16T02:33:18.802Z,9.20
2023-03-16T02:38:20.683Z,6.63
2023-03-16T02:43:34.844Z,6.05
2023-03-16T02:48:56.665Z,5.78
2023-03-16T02:53:58.819Z,8.40
2023-03-16T02:59:02.691Z,7.18
2023-03-16T03:04:05.478Z,6.68
2023-03-16T03:09:07.744Z,5.88
2023-03-16T03:14:10.321Z,5.70
2023-03-16T03:19:14.368Z,6.90
2023-03-16T03:24:16.431Z,7.45
2023-03-16T03:29:21.119Z,6.82
2023-03-16T03:34:22.708Z,7.03
2023-03-16T03:39:25.077Z,6.93
2023-03-16T03:44:28.979Z,6.78
2023-03-16T03:49:31.367Z,7.40
2023-03-16T03:54:33.335Z,5.55
2023-03-16T03:59:40.639Z,8.00
2023-03-16T04:04:54.380Z,9.43
2023-03-16T04:09:56.279Z,5.95
2023-03-16T04:15:04.428Z,6.78
2023-03-16T04:20:11.965Z,8.00
2023-03-16T04:25:16.446Z,6.10
2023-03-16T04:30:19.464Z,4.63
2023-03-16T04:35:26.152Z,6.80
2023-03-16T04:40:31.662Z,7.50
2023-03-16T04:45:41.871Z,5.15
2023-03-16T04:50:44.345Z,12.52
2023-03-16T04:55:47.484Z,7.90
2023-03-16T05:00:52.258Z,8.60
2023-03-16T05:05:59.900Z,7.20
2023-03-16T05:11:07.982Z,8.38
2023-03-16T05:16:16.061Z,6.40
2023-03-16T05:21:18.096Z,8.98
2023-03-16T05:26:28.864Z,7.70
2023-03-16T05:31:31.347Z,11.27
2023-03-16T05:36:34.121Z,8.32
2023-03-16T05:41:42.264Z,9.00
2023-03-16T05:46:51.787Z,7.78
2023-03-16T05:51:54.113Z,8.25
2023-03-16T05:56:56.822Z,9.00
2023-03-16T06:01:59.008Z,8.75
2023-03-16T06:07:01.766Z,9.13
2023-03-16T06:12:04.956Z,8.13
2023-03-16T06:17:08.314Z,8.15
2023-03-16T06:22:11.161Z,9.73
2023-03-16T06:27:13.671Z,6.45
2023-03-16T06:32:31.270Z,6.80
2023-03-16T06:37:33.018Z,5.82
2023-03-16T06:47:45.353Z,8.32
2023-03-16T06:52:47.548Z,7.10
2023-03-16T06:57:49.282Z,6.07
2023-03-16T07:02:53.312Z,8.73
2023-03-16T07:07:56.196Z,9.38
2023-03-16T07:12:57.829Z,5.97
2023-03-16T07:17:59.512Z,6.18
2023-03-16T07:23:01.516Z,6.47
2023-03-16T07:28:04.386Z,5.53
2023-03-16T07:33:12.778Z,9.02
2023-03-16T07:38:15.455Z,6.07
2023-03-16T07:43:18.489Z,9.13
2023-03-16T07:48:24.999Z,6.82
2023-03-16T07:53:34.344Z,6.60
2023-03-16T07:58:50.275Z,8.93
2023-03-16T08:03:52.808Z,7.03
2023-03-16T08:08:54.744Z,6.28
2023-03-16T08:14:04.110Z,8.07
2023-03-16T08:19:24.625Z,4.95
2023-03-16T08:24:28.632Z,6.28
2023-03-16T08:29:32.248Z,6.65
2023-03-16T08:34:33.873Z,5.30
2023-03-16T08:39:35.746Z,5.55
2023-03-16T08:44:41.657Z,9.23
2023-03-16T08:49:43.348Z,6.45
2023-03-16T08:55:01.846Z,7.43
2023-03-16T09:00:04.934Z,7.60
2023-03-16T09:05:11.725Z,7.85
2023-03-16T09:15:15.284Z,5.25
2023-03-16T09:20:33.516Z,8.88
2023-03-16T09:25:35.389Z,9.13
2023-03-16T09:30:37.244Z,7.85
2023-03-16T09:35:39.230Z,5.35
2023-03-16T09:40:41.221Z,7.75
2023-03-16T09:45:48.770Z,5.47
2023-03-16T09:50:51.384Z,6.15
2023-03-16T09:56:05.851Z,5.82
2023-03-16T10:01:27.043Z,7.38
2023-03-16T10:06:28.948Z,8.68
2023-03-16T10:11:57.180Z,5.57
2023-03-16T10:17:16.845Z,5.85
2023-03-16T10:22:23.388Z,5.85
2023-03-16T10:27:31.174Z,6.13
2023-03-16T10:32:34.019Z,6.50
2023-03-16T10:37:36.411Z,6.35
2023-03-16T10:42:38.896Z,7.40
2023-03-16T10:47:40.857Z,6.70
2023-03-16T10:52:46.288Z,4.72
2023-03-16T10:57:56.067Z,4.97
2023-03-16T11:02:59.783Z,4.90
2023-03-16T11:08:13.438Z,7.22
2023-03-16T11:13:20.832Z,6.95
2023-03-16T11:18:29.643Z,5.38
2023-03-16T11:23:39.085Z,4.80
2023-03-16T11:28:46.073Z,6.47
2023-03-16T11:33:48.012Z,4.28
2023-03-16T11:39:12.505Z,5.07
2023-03-16T11:44:33.081Z,4.72
2023-03-16T11:49:52.715Z,9.50
2023-03-16T11:55:17.129Z,5.07
2023-03-16T12:00:33.792Z,4.32
2023-03-16T12:05:47.902Z,4.82
2023-03-16T12:10:57.622Z,4.32
2023-03-16T12:16:49.527Z,5.38
2023-03-16T12:22:02.897Z,4.70
2023-03-16T12:27:05.853Z,5.35
2023-03-16T12:32:28.021Z,5.97
2023-03-16T12:38:18.297Z,5.75
2023-03-16T12:43:55.526Z,4.60
2023-03-16T12:54:00.331Z,4.60
2023-03-16T12:59:05.991Z,3.65
2023-03-16T13:04:18.178Z,5.13
2023-03-16T13:09:24.154Z,5.20
2023-03-16T13:14:44.798Z,3.60
2023-03-16T13:20:21.006Z,4.05
2023-03-16T13:25:29.372Z,3.88
2023-03-16T13:30:34.353Z,4.07
2023-03-16T13:35:39.256Z,2.63
2023-03-16T13:40:46.312Z,6.55
2023-03-16T13:45:47.903Z,4.97
2023-03-16T13:50:57.000Z,4.70
2023-03-16T13:56:01.283Z,5.82
2023-03-16T14:01:05.537Z,3.70
2023-03-16T14:06:19.028Z,3.35
2023-03-16T14:11:21.539Z,5.18
2023-03-16T14:16:25.477Z,4.43
2023-03-16T14:21:30.951Z,2.42
2023-03-16T14:26:46.768Z,2.67
2023-03-16T14:31:48.350Z,4.30
2023-03-16T14:36:50.221Z,4.65
2023-03-16T14:41:52.861Z,3.05
2023-03-16T14:46:55.835Z,2.42
2023-03-16T14:52:04.625Z,2.92
2023-03-16T14:57:06.419Z,4.55
2023-03-16T15:02:16.939Z,4.68
2023-03-16T15:07:23.262Z,3.80
2023-03-16T15:12:24.768Z,3.35
2023-03-16T15:17:26.485Z,4.28
2023-03-16T15:22:34.105Z,5.90
2023-03-16T15:27:36.277Z,3.70
2023-03-16T15:32:37.807Z,4.78
2023-03-16T15:37:39.767Z,5.85
2023-03-16T15:42:41.516Z,4.05
2023-03-16T15:47:43.492Z,4.28
2023-03-16T15:53:13.315Z,3.45
2023-03-16T15:58:28.208Z,4.50
2023-03-16T16:03:30.388Z,5.95
2023-03-16T16:08:32.346Z,3.55
2023-03-16T16:13:44.078Z,4.00
2023-03-16T16:18:47.691Z,4.07
2023-03-16T16:23:49.504Z,5.90
2023-03-16T16:28:51.609Z,5.68
2023-03-16T16:33:53.140Z,5.82
2023-03-16T16:38:54.900Z,5.72
2023-03-16T16:43:57.913Z,6.47
2023-03-16T16:49:04.477Z,6.00
2023-03-16T16:54:18.626Z,5.43
2023-03-16T16:59:32.088Z,5.75
2023-03-16T17:04:34.970Z,4.80
2023-03-16T17:09:36.715Z,7.85
2023-03-16T17:14:38.509Z,7.30
2023-03-16T17:19:40.497Z,4.00
2023-03-16T17:24:42.562Z,6.97
2023-03-16T17:29:44.256Z,5.80
2023-03-16T17:34:46.190Z,5.53
2023-03-16T17:39:48.384Z,4.68
2023-03-16T17:44:52.855Z,4.00
2023-03-16T17:49:55.364Z,3.88
2023-03-16T17:54:57.204Z,5.30
2023-03-16T18:00:00.502Z,4.35
2023-03-16T18:05:02.195Z,6.93
2023-03-16T18:10:04.021Z,3.90
2023-03-16T18:15:05.965Z,6.68
2023-03-16T18:20:24.401Z,12.40
2023-03-16T18:25:37.607Z,6.45
2023-03-16T18:30:40.874Z,5.35
2023-03-16T18:35:43.395Z,4.47
2023-03-16T18:40:44.997Z,5.70
2023-03-16T18:45:47.657Z,5.10
2023-03-16T18:50:49.266Z,3.78
2023-03-16T18:55:51.451Z,4.28
2023-03-16T19:00:58.001Z,5.10
2023-03-16T19:06:01.507Z,6.22
2023-03-16T19:11:05.006Z,5.35
2023-03-16T19:16:13.978Z,5.70
2023-03-16T19:21:18.768Z,5.22
2023-03-16T19:26:20.580Z,5.82
2023-03-16T19:31:25.267Z,6.15
2023-03-16T19:36:31.893Z,5.18
2023-03-16T19:41:37.336Z,6.50
2023-03-16T19:46:39.989Z,7.35
2023-03-16T19:51:41.572Z,5.40
2023-03-16T19:56:43.150Z,4.55
2023-03-16T20:01:44.884Z,6.82
2023-03-16T20:06:49.385Z,9.07
2023-03-16T20:11:51.874Z,6.85
2023-03-16T20:16:53.571Z,6.60
2023-03-16T20:21:55.160Z,5.15
2023-03-16T20:26:56.782Z,7.10
2023-03-16T20:31:59.560Z,6.90
2023-03-16T20:37:01.314Z,5.32
2023-03-16T20:42:02.913Z,6.30
2023-03-16T20:47:04.750Z,8.10
2023-03-16T20:52:16.055Z,6.75
2023-03-16T20:57:23.332Z,5.88
2023-03-16T21:02:32.629Z,6.40
2023-03-16T21:07:34.548Z,7.57
2023-03-16T21:12:39.305Z,5.45
2023-03-16T21:17:41.689Z,7.13
2023-03-16T21:22:43.508Z,9.93
2023-03-16T21:27:46.137Z,5.32
2023-03-16T21:32:49.550Z,6.78
2023-03-16T21:37:51.081Z,5.47
2023-03-16T21:42:52.693Z,5.82
2023-03-16T21:47:54.344Z,4.97
2023-03-16T21:52:56.007Z,4.55
2023-03-16T21:57:58.921Z,6.85
2023-03-16T22:03:00.957Z,6.03
2023-03-16T22:08:12.782Z,7.10
2023-03-16T22:13:15.405Z,6.35
2023-03-16T22:18:35.615Z,4.80
2023-03-16T22:23:38.014Z,5.75
2023-03-16T22:28:39.889Z,4.68
2023-03-16T22:33:42.554Z,6.70
2023-03-16T22:38:45.540Z,4.90
2023-03-16T22:43:47.629Z,5.82
2023-03-16T22:48:50.131Z,3.70
2023-03-16T22:53:54.476Z,5.43
2023-03-16T22:59:00.712Z,4.68
2023-03-16T23:04:02.482Z,3.90
2023-03-16T23:09:04.479Z,4.32
2023-03-16T23:14:20.692Z,5.88
2023-03-16T23:19:31.151Z,2.78
2023-03-16T23:24:34.784Z,5.05
2023-03-16T23:29:36.703Z,6.63
2023-03-16T23:34:38.741Z,5.45
2023-03-16T23:39:40.498Z,4.50
2023-03-16T23:44:43.248Z,4.53
2023-03-16T23:49:44.794Z,5.53
2023-03-16T23:54:46.305Z,5.63
2023-03-16T23:59:47.874Z,5.35
